Terminal Aerodrome Forecast
Issued by NWS Cleveland, OH

Home | Current Version | Previous Version | Text Only | Print | Product List | Glossary Off
Versions: 1 2 3 4 5 6 7 8 9 10 11 12 13 14 15 16 17

000
FTUS41 KCLE 261704 AAB
TAFERI
TAF AMD
KERI 261704Z 2617/2712 27010KT P6SM OVC005
     FM261900 27010KT P6SM OVC015
     FM270600 16006KT P6SM OVC035=

USA.gov is the U.S. government's official web portal to all federal, state and local government web resources and services.